createdAt,value
2018-06-15T00:00:33.667Z,17.82
2018-06-15T00:01:33.673Z,17.71
2018-06-15T00:02:33.681Z,17.90
2018-06-15T00:03:33.683Z,17.99
2018-06-15T00:04:33.687Z,17.89
2018-06-15T00:05:33.695Z,17.74
2018-06-15T00:06:33.703Z,17.81
2018-06-15T00:07:33.704Z,17.95
2018-06-15T00:08:33.717Z,18.07
2018-06-15T00:09:33.712Z,18.10
2018-06-15T00:10:33.723Z,17.87
2018-06-15T00:11:33.764Z,17.79
2018-06-15T00:12:33.735Z,17.96
2018-06-15T00:13:33.735Z,17.92
2018-06-15T00:14:33.744Z,17.79
2018-06-15T00:15:33.746Z,17.74
2018-06-15T00:16:33.763Z,17.71
2018-06-15T00:17:33.762Z,17.59
2018-06-15T00:18:33.758Z,17.51
2018-06-15T00:19:33.765Z,17.52
2018-06-15T00:20:33.770Z,17.74
2018-06-15T00:21:33.778Z,17.51
2018-06-15T00:22:33.779Z,17.38
2018-06-15T00:23:33.790Z,17.46
2018-06-15T00:24:33.800Z,17.40
2018-06-15T00:25:33.802Z,17.66
2018-06-15T00:26:33.807Z,17.55
2018-06-15T00:27:33.813Z,17.54
2018-06-15T00:28:33.822Z,17.49
2018-06-15T00:29:33.814Z,17.38
2018-06-15T00:30:33.824Z,17.63
2018-06-15T00:31:33.834Z,17.51
2018-06-15T00:32:33.836Z,17.48
2018-06-15T00:33:33.836Z,17.30
2018-06-15T00:34:33.849Z,17.06
2018-06-15T00:35:33.845Z,17.12
2018-06-15T00:36:33.855Z,17.37
2018-06-15T00:37:33.856Z,17.59
2018-06-15T00:38:33.870Z,17.59
2018-06-15T00:39:33.867Z,17.22
2018-06-15T00:40:33.874Z,17.15
2018-06-15T00:41:33.887Z,17.15
2018-06-15T00:42:33.885Z,17.12
2018-06-15T00:43:33.886Z,17.22
2018-06-15T00:44:33.899Z,17.36
2018-06-15T00:45:33.904Z,17.19
2018-06-15T00:46:33.900Z,17.21
2018-06-15T00:47:33.941Z,17.33
2018-06-15T00:48:33.912Z,17.41
2018-06-15T00:49:33.924Z,17.22
2018-06-15T00:50:33.921Z,17.26
2018-06-15T00:51:33.924Z,17.19
2018-06-15T00:52:33.936Z,17.08
2018-06-15T00:53:33.938Z,17.22
2018-06-15T00:54:33.946Z,17.19
2018-06-15T00:55:33.949Z,17.33
2018-06-15T00:56:33.953Z,17.00
2018-06-15T00:57:33.958Z,17.16
2018-06-15T00:58:33.968Z,17.19
2018-06-15T00:59:33.967Z,17.12
2018-06-15T01:00:33.971Z,17.07
2018-06-15T01:01:33.977Z,17.01
2018-06-15T01:02:33.981Z,17.04
2018-06-15T01:03:33.986Z,17.18
2018-06-15T01:04:33.993Z,17.04
2018-06-15T01:05:34.001Z,17.22
2018-06-15T01:06:34.001Z,17.07
2018-06-15T01:07:34.009Z,17.18
2018-06-15T01:08:34.021Z,17.08
2018-06-15T01:09:34.025Z,17.22
2018-06-15T01:10:34.023Z,17.18
2018-06-15T01:11:34.045Z,17.08
2018-06-15T01:12:34.086Z,17.21
2018-06-15T01:13:34.035Z,17.14
2018-06-15T01:14:34.039Z,17.19
2018-06-15T01:15:34.049Z,17.08
2018-06-15T01:16:34.073Z,17.11
2018-06-15T01:17:34.066Z,17.12
2018-06-15T01:18:34.061Z,17.16
2018-06-15T01:19:34.066Z,17.16
2018-06-15T01:20:34.108Z,17.06
2018-06-15T01:21:34.078Z,17.18
2018-06-15T01:22:34.090Z,17.12
2018-06-15T01:23:34.110Z,17.14
2018-06-15T01:24:34.088Z,17.22
2018-06-15T01:25:34.111Z,17.23
2018-06-15T01:26:34.103Z,17.15
2018-06-15T01:27:34.109Z,17.23
2018-06-15T01:28:34.112Z,17.34
2018-06-15T01:29:34.122Z,17.23
2018-06-15T01:30:34.119Z,17.18
2018-06-15T01:31:34.136Z,16.93
2018-06-15T01:32:34.134Z,17.12
2018-06-15T01:33:34.174Z,17.15
2018-06-15T01:34:34.139Z,17.06
2018-06-15T01:35:34.149Z,17.00
2018-06-15T01:36:34.152Z,17.19
2018-06-15T01:37:34.152Z,17.03
2018-06-15T01:38:34.160Z,16.94
2018-06-15T01:39:34.165Z,16.93
2018-06-15T01:40:34.183Z,17.11
2018-06-15T01:41:34.173Z,16.97
2018-06-15T01:42:34.182Z,17.04
2018-06-15T01:43:34.188Z,17.07
2018-06-15T01:44:34.194Z,17.07
2018-06-15T01:45:34.201Z,16.83
2018-06-15T01:46:34.195Z,16.93
2018-06-15T01:47:34.202Z,17.07
2018-06-15T01:48:34.241Z,17.07
2018-06-15T01:49:34.217Z,17.19
2018-06-15T01:50:34.227Z,17.19
2018-06-15T01:51:34.227Z,17.15
2018-06-15T01:52:34.230Z,17.14
2018-06-15T01:53:34.238Z,17.18
2018-06-15T01:54:34.251Z,17.11
2018-06-15T01:55:34.243Z,17.04
2018-06-15T01:56:34.248Z,17.15
2018-06-15T01:57:34.247Z,17.22
2018-06-15T01:58:34.255Z,17.08
2018-06-15T01:59:34.263Z,17.25
2018-06-15T02:00:34.269Z,17.28
2018-06-15T02:01:34.269Z,17.37
2018-06-15T02:02:34.301Z,17.34
2018-06-15T02:03:34.283Z,17.21
2018-06-15T02:04:34.314Z,17.36
2018-06-15T02:05:34.310Z,17.18
2018-06-15T02:06:34.291Z,17.21
2018-06-15T02:07:34.302Z,17.18
2018-06-15T02:08:34.302Z,17.26
2018-06-15T02:09:34.309Z,17.21
2018-06-15T02:10:34.327Z,17.26
2018-06-15T02:11:34.318Z,17.23
2018-06-15T02:12:34.324Z,16.93
2018-06-15T02:13:34.327Z,16.98
2018-06-15T02:14:34.336Z,17.14
2018-06-15T02:15:34.336Z,17.14
2018-06-15T02:16:34.345Z,17.22
2018-06-15T02:17:34.345Z,17.11
2018-06-15T02:18:34.351Z,17.18
2018-06-15T02:19:34.385Z,17.07
2018-06-15T02:20:34.362Z,17.04
2018-06-15T02:21:34.364Z,17.04
2018-06-15T02:22:34.367Z,16.98
2018-06-15T02:23:34.394Z,16.85
2018-06-15T02:24:34.391Z,16.85
2018-06-15T02:25:34.383Z,17.04
2018-06-15T02:26:34.387Z,17.18
2018-06-15T02:27:34.401Z,17.14
2018-06-15T02:28:34.398Z,17.04
2018-06-15T02:29:34.419Z,17.15
2018-06-15T02:30:34.407Z,17.26
2018-06-15T02:31:34.421Z,17.19
2018-06-15T02:32:34.424Z,17.16
2018-06-15T02:33:34.419Z,17.18
2018-06-15T02:34:34.432Z,17.25
2018-06-15T02:35:34.458Z,17.15
2018-06-15T02:36:34.441Z,17.19
2018-06-15T02:37:34.437Z,17.08
2018-06-15T02:38:34.448Z,17.07
2018-06-15T02:39:34.448Z,17.03
2018-06-15T02:40:34.502Z,17.00
2018-06-15T02:41:34.486Z,17.11
2018-06-15T02:42:34.472Z,17.12
2018-06-15T02:43:34.468Z,17.15
2018-06-15T02:44:34.474Z,17.00
2018-06-15T02:45:34.563Z,17.07
2018-06-15T02:46:34.485Z,17.04
2018-06-15T02:47:34.512Z,17.04
2018-06-15T02:48:34.491Z,17.06
2018-06-15T02:49:34.497Z,17.07
2018-06-15T02:50:34.501Z,17.00
2018-06-15T02:51:34.515Z,17.01
2018-06-15T02:52:34.513Z,17.16
2018-06-15T02:53:34.515Z,17.23
2018-06-15T02:54:34.517Z,17.12
2018-06-15T02:55:34.527Z,17.06
2018-06-15T02:56:34.537Z,17.15
2018-06-15T02:57:34.567Z,17.18
2018-06-15T02:58:34.560Z,17.22
2018-06-15T02:59:34.541Z,17.16
2018-06-15T03:00:34.551Z,17.16
2018-06-15T03:01:34.570Z,17.18
2018-06-15T03:02:34.556Z,17.30
2018-06-15T03:03:34.564Z,17.08
2018-06-15T03:04:34.572Z,17.01
2018-06-15T03:05:34.574Z,17.01
2018-06-15T03:06:34.576Z,17.06
2018-06-15T03:07:34.582Z,17.15
2018-06-15T03:08:34.594Z,16.97
2018-06-15T03:09:34.588Z,16.98
2018-06-15T03:10:34.594Z,16.96
2018-06-15T03:11:34.597Z,16.93
2018-06-15T03:12:34.605Z,16.93
2018-06-15T03:13:34.609Z,16.82
2018-06-15T03:14:34.614Z,16.79
2018-06-15T03:15:34.614Z,16.81
2018-06-15T03:16:34.636Z,16.79
2018-06-15T03:17:34.627Z,16.76
2018-06-15T03:18:34.631Z,16.67
2018-06-15T03:19:34.635Z,16.89
2018-06-15T03:20:34.639Z,16.94
2018-06-15T03:21:34.642Z,16.83
2018-06-15T03:22:34.648Z,16.76
2018-06-15T03:23:34.656Z,16.89
2018-06-15T03:24:34.660Z,16.89
2018-06-15T03:25:34.666Z,17.06
2018-06-15T03:26:34.668Z,17.14
2018-06-15T03:27:34.671Z,17.07
2018-06-15T03:28:34.683Z,17.12
2018-06-15T03:29:34.685Z,17.03
2018-06-15T03:30:34.690Z,17.01
2018-06-15T03:31:34.693Z,16.98
2018-06-15T03:32:34.699Z,17.01
2018-06-15T03:33:34.705Z,17.18
2018-06-15T03:34:34.704Z,17.03
2018-06-15T03:35:34.720Z,16.96
2018-06-15T03:36:34.714Z,16.93
2018-06-15T03:37:34.729Z,16.94
2018-06-15T03:38:34.721Z,17.15
2018-06-15T03:39:34.729Z,17.12
2018-06-15T03:40:34.735Z,17.04
2018-06-15T03:41:34.743Z,17.04
2018-06-15T03:42:34.742Z,16.93
2018-06-15T03:43:34.744Z,17.19
2018-06-15T03:44:34.752Z,17.04
2018-06-15T03:45:34.759Z,16.70
2018-06-15T03:46:34.763Z,17.03
2018-06-15T03:47:34.765Z,17.07
2018-06-15T03:48:34.769Z,17.14
2018-06-15T03:49:34.805Z,17.18
2018-06-15T03:50:34.781Z,17.21
2018-06-15T03:51:34.791Z,17.22
2018-06-15T03:52:34.789Z,17.22
2018-06-15T03:53:34.792Z,17.31
2018-06-15T03:54:34.797Z,17.34
2018-06-15T03:55:34.801Z,17.33
2018-06-15T03:56:34.818Z,17.34
2018-06-15T03:57:34.818Z,17.44
2018-06-15T03:58:34.817Z,17.04
2018-06-15T03:59:34.819Z,17.16
2018-06-15T04:00:34.828Z,17.06
2018-06-15T04:01:34.836Z,17.14
2018-06-15T04:02:34.830Z,17.07
2018-06-15T04:03:34.847Z,17.12
2018-06-15T04:04:34.849Z,17.19
2018-06-15T04:05:34.867Z,17.06
2018-06-15T04:06:34.857Z,16.98
2018-06-15T04:07:34.859Z,16.83
2018-06-15T04:08:34.871Z,17.03
2018-06-15T04:09:34.864Z,17.14
2018-06-15T04:10:34.872Z,17.34
2018-06-15T04:11:34.877Z,17.19
2018-06-15T04:12:34.880Z,17.07
2018-06-15T04:13:34.882Z,16.89
2018-06-15T04:14:34.891Z,16.89
2018-06-15T04:15:34.895Z,17.18
2018-06-15T04:16:34.898Z,17.18
2018-06-15T04:17:34.908Z,17.00
2018-06-15T04:18:34.910Z,17.11
2018-06-15T04:19:34.925Z,17.36
2018-06-15T04:20:34.922Z,17.37
2018-06-15T04:21:34.930Z,17.14
2018-06-15T04:22:34.927Z,17.08
2018-06-15T04:23:34.934Z,17.23
2018-06-15T04:24:34.936Z,17.23
2018-06-15T04:25:34.946Z,17.34
2018-06-15T04:26:34.960Z,17.31
2018-06-15T04:27:34.987Z,17.41
2018-06-15T04:28:34.973Z,17.30
2018-06-15T04:29:34.959Z,17.21
2018-06-15T04:30:34.965Z,17.22
2018-06-15T04:31:34.975Z,17.37
2018-06-15T04:32:34.974Z,17.21
2018-06-15T04:33:34.982Z,17.01
2018-06-15T04:34:34.987Z,17.08
2018-06-15T04:35:34.988Z,17.11
2018-06-15T04:36:35.000Z,17.21
2018-06-15T04:37:35.021Z,17.33
2018-06-15T04:38:35.002Z,17.21
2018-06-15T04:39:35.018Z,17.21
2018-06-15T04:40:35.023Z,17.16
2018-06-15T04:41:35.015Z,17.22
2018-06-15T04:42:35.030Z,17.21
2018-06-15T04:43:35.029Z,17.41
2018-06-15T04:44:35.031Z,17.33
2018-06-15T04:45:35.038Z,17.18
2018-06-15T04:46:35.042Z,17.14
2018-06-15T04:47:35.052Z,17.28
2018-06-15T04:48:35.059Z,17.16
2018-06-15T04:49:35.053Z,17.11
2018-06-15T04:50:35.062Z,17.28
2018-06-15T04:51:35.068Z,17.21
2018-06-15T04:52:35.071Z,17.54
2018-06-15T04:53:35.075Z,17.31
2018-06-15T04:54:35.090Z,17.36
2018-06-15T04:55:35.084Z,17.40
2018-06-15T04:56:35.093Z,17.58
2018-06-15T04:57:35.101Z,17.68
2018-06-15T04:58:35.110Z,17.66
2018-06-15T04:59:35.124Z,17.54
2018-06-15T05:00:35.110Z,17.63
2018-06-15T05:01:35.112Z,17.43
2018-06-15T05:02:35.122Z,17.49
2018-06-15T05:03:35.122Z,17.78
2018-06-15T05:04:35.147Z,17.96
2018-06-15T05:05:35.134Z,17.78
2018-06-15T05:06:35.138Z,17.78
2018-06-15T05:07:35.145Z,17.74
2018-06-15T05:08:35.150Z,17.64
2018-06-15T05:09:35.158Z,17.46
2018-06-15T05:10:35.173Z,17.63
2018-06-15T05:11:35.164Z,17.82
2018-06-15T05:12:35.192Z,17.77
2018-06-15T05:13:35.176Z,17.87
2018-06-15T05:14:35.247Z,18.10
2018-06-15T05:15:35.184Z,18.03
2018-06-15T05:16:35.188Z,17.86
2018-06-15T05:17:35.189Z,17.92
2018-06-15T05:18:35.363Z,18.15
2018-06-15T05:19:35.201Z,18.02
2018-06-15T05:20:35.212Z,18.20
2018-06-15T05:21:35.239Z,18.14
2018-06-15T05:22:35.220Z,18.12
2018-06-15T05:23:35.252Z,18.14
2018-06-15T05:24:35.333Z,18.17
2018-06-15T05:25:35.237Z,18.11
2018-06-15T05:26:35.263Z,18.15
2018-06-15T05:27:35.262Z,18.27
2018-06-15T05:28:35.359Z,18.17
2018-06-15T05:29:35.381Z,18.37
2018-06-15T05:30:35.268Z,18.35
2018-06-15T05:31:35.271Z,18.42
2018-06-15T05:32:35.269Z,18.18
2018-06-15T05:33:35.272Z,18.12
2018-06-15T05:34:35.281Z,18.12
2018-06-15T05:35:35.377Z,18.14
2018-06-15T05:36:35.290Z,18.21
2018-06-15T05:37:35.326Z,18.35
2018-06-15T05:38:35.309Z,18.26
2018-06-15T05:39:35.326Z,18.29
2018-06-15T05:40:35.314Z,18.39
2018-06-15T05:41:35.317Z,18.44
2018-06-15T05:42:35.360Z,18.58
2018-06-15T05:43:35.328Z,18.62
2018-06-15T05:44:35.334Z,18.55
2018-06-15T05:45:35.340Z,18.72
2018-06-15T05:46:35.358Z,18.69
2018-06-15T05:47:35.362Z,18.57
2018-06-15T05:48:35.353Z,18.63
2018-06-15T05:49:35.357Z,18.55
2018-06-15T05:50:35.368Z,18.55
2018-06-15T05:51:35.367Z,18.63
2018-06-15T05:52:35.429Z,18.70
2018-06-15T05:53:35.380Z,18.76
2018-06-15T05:54:35.385Z,18.81
2018-06-15T05:55:35.441Z,18.73
2018-06-15T05:56:35.403Z,18.63
2018-06-15T05:57:35.419Z,18.54
2018-06-15T05:58:35.444Z,18.62
2018-06-15T05:59:35.417Z,18.67
2018-06-15T06:00:35.463Z,18.65
2018-06-15T06:01:35.501Z,18.66
2018-06-15T06:02:35.428Z,18.69
2018-06-15T06:03:35.441Z,18.73
2018-06-15T06:04:35.526Z,18.82
2018-06-15T06:05:35.454Z,18.81
2018-06-15T06:06:35.520Z,18.84
2018-06-15T06:07:35.505Z,18.80
2018-06-15T06:08:35.549Z,18.88
2018-06-15T06:09:35.507Z,18.91
2018-06-15T06:10:35.537Z,18.90
2018-06-15T06:11:35.481Z,18.95
2018-06-15T06:12:35.490Z,18.92
2018-06-15T06:13:35.494Z,19.06
2018-06-15T06:14:35.592Z,19.07
2018-06-15T06:15:35.506Z,18.99
2018-06-15T06:16:35.575Z,18.99
2018-06-15T06:17:35.572Z,18.91
2018-06-15T06:18:36.610Z,18.95
2018-06-15T06:19:35.589Z,18.98
2018-06-15T06:20:35.633Z,18.98
2018-06-15T06:21:35.622Z,18.90
2018-06-15T06:22:35.645Z,18.98
2018-06-15T06:23:35.600Z,19.10
2018-06-15T06:24:35.633Z,19.14
2018-06-15T06:25:35.632Z,19.26
2018-06-15T06:26:35.622Z,19.29
2018-06-15T06:27:35.616Z,19.29
2018-06-15T06:28:35.691Z,19.21
2018-06-15T06:29:35.721Z,19.19
2018-06-15T06:30:35.642Z,19.22
2018-06-15T06:31:36.626Z,19.28
2018-06-15T06:32:35.742Z,19.32
2018-06-15T06:33:35.666Z,19.41
2018-06-15T06:34:36.598Z,19.46
2018-06-15T06:35:37.594Z,19.46
2018-06-15T06:36:35.736Z,19.48
2018-06-15T06:37:36.612Z,19.39
2018-06-15T06:38:36.613Z,19.32
2018-06-15T06:39:35.687Z,19.43
2018-06-15T06:40:35.764Z,19.50
2018-06-15T06:41:35.777Z,19.44
2018-06-15T06:42:35.714Z,19.61
2018-06-15T06:43:35.776Z,19.58
2018-06-15T06:44:36.550Z,19.62
2018-06-15T06:45:35.726Z,19.62
2018-06-15T06:46:35.764Z,19.58
2018-06-15T06:47:35.805Z,19.66
2018-06-15T06:48:35.701Z,19.81
2018-06-15T06:49:35.751Z,19.56
2018-06-15T06:50:36.636Z,19.54
2018-06-15T06:51:35.717Z,19.44
2018-06-15T06:52:35.839Z,19.54
2018-06-15T06:53:35.727Z,19.63
2018-06-15T06:54:36.537Z,19.77
2018-06-15T06:55:35.738Z,19.84
2018-06-15T06:56:35.749Z,19.74
2018-06-15T06:57:35.751Z,19.63
2018-06-15T06:58:35.786Z,19.59
2018-06-15T06:59:35.767Z,19.56
2018-06-15T07:00:35.777Z,19.65
2018-06-15T07:01:35.791Z,19.63
2018-06-15T07:02:35.787Z,19.87
2018-06-15T07:03:35.795Z,19.63
2018-06-15T07:04:35.801Z,19.44
2018-06-15T07:05:35.802Z,19.56
2018-06-15T07:06:35.811Z,19.62
2018-06-15T07:07:35.819Z,19.80
2018-06-15T07:08:35.827Z,19.63
2018-06-15T07:09:35.830Z,19.71
2018-06-15T07:10:35.839Z,19.69
2018-06-15T07:11:35.852Z,19.87
2018-06-15T07:12:35.854Z,19.80
2018-06-15T07:13:35.864Z,19.94
2018-06-15T07:14:35.863Z,19.83
2018-06-15T07:15:35.886Z,19.83
2018-06-15T07:16:35.881Z,19.54
2018-06-15T07:17:35.878Z,19.80
2018-06-15T07:18:35.890Z,19.87
2018-06-15T07:19:35.902Z,20.02
2018-06-15T07:20:35.942Z,19.96
2018-06-15T07:21:35.917Z,20.02
2018-06-15T07:22:35.914Z,20.13
2018-06-15T07:23:36.021Z,20.14
2018-06-15T07:24:35.958Z,20.05
2018-06-15T07:25:35.934Z,20.17
2018-06-15T07:26:35.944Z,20.24
2018-06-15T07:27:35.947Z,20.21
2018-06-15T07:28:35.953Z,20.10
2018-06-15T07:29:36.080Z,20.10
2018-06-15T07:30:35.997Z,20.10
2018-06-15T07:31:35.983Z,20.31
2018-06-15T07:32:36.094Z,20.42
2018-06-15T07:33:36.007Z,20.48
2018-06-15T07:34:36.014Z,20.52
2018-06-15T07:35:36.035Z,20.66
2018-06-15T07:36:36.013Z,20.38
2018-06-15T07:37:36.183Z,20.54
2018-06-15T07:38:36.156Z,20.64
2018-06-15T07:39:36.174Z,20.54
2018-06-15T07:40:36.094Z,20.69
2018-06-15T07:41:36.045Z,20.70
2018-06-15T07:42:36.069Z,20.57
2018-06-15T07:43:36.057Z,20.73
2018-06-15T07:44:36.064Z,20.54
2018-06-15T07:45:36.069Z,20.54
2018-06-15T07:46:36.096Z,20.70
2018-06-15T07:47:36.140Z,20.72
2018-06-15T07:48:36.251Z,20.76
2018-06-15T07:49:36.150Z,20.73
2018-06-15T07:50:36.203Z,20.58
2018-06-15T07:51:36.135Z,20.82
2018-06-15T07:52:36.146Z,20.82
2018-06-15T07:53:36.124Z,20.87
2018-06-15T07:54:36.165Z,20.92
2018-06-15T07:55:36.229Z,20.94
2018-06-15T07:56:36.148Z,21.09
2018-06-15T07:57:36.150Z,20.82
2018-06-15T07:58:36.202Z,20.92
2018-06-15T07:59:36.240Z,20.85
2018-06-15T08:00:36.181Z,20.95
2018-06-15T08:01:36.184Z,20.98
2018-06-15T08:02:36.188Z,21.06
2018-06-15T08:03:36.218Z,21.07
2018-06-15T08:04:36.201Z,21.17
2018-06-15T08:05:36.261Z,21.04
2018-06-15T08:06:36.308Z,20.97
2018-06-15T08:07:36.333Z,20.97
2018-06-15T08:08:36.268Z,21.19
2018-06-15T08:09:36.347Z,21.34
2018-06-15T08:10:36.244Z,21.06
2018-06-15T08:11:36.275Z,21.25
2018-06-15T08:12:36.350Z,21.25
2018-06-15T08:13:36.344Z,21.35
2018-06-15T08:14:36.376Z,21.29
2018-06-15T08:15:36.369Z,21.49
2018-06-15T08:16:36.384Z,21.40
2018-06-15T08:17:36.336Z,21.42
2018-06-15T08:18:36.383Z,21.58
2018-06-15T08:19:36.309Z,21.65
2018-06-15T08:20:36.424Z,21.54
2018-06-15T08:21:36.335Z,21.64
2018-06-15T08:22:37.066Z,21.62
2018-06-15T08:23:36.432Z,21.53
2018-06-15T08:24:36.457Z,21.74
2018-06-15T08:25:36.383Z,21.53
2018-06-15T08:26:36.476Z,21.72
2018-06-15T08:27:36.460Z,21.74
2018-06-15T08:28:36.468Z,21.69
2018-06-15T08:29:36.497Z,21.68
2018-06-15T08:30:36.436Z,21.74
2018-06-15T08:31:36.407Z,21.69
2018-06-15T08:32:36.516Z,21.75
2018-06-15T08:33:36.417Z,21.68
2018-06-15T08:34:36.497Z,21.82
2018-06-15T08:35:36.488Z,21.88
2018-06-15T08:36:36.557Z,21.84
2018-06-15T08:37:36.545Z,21.94
2018-06-15T08:38:36.514Z,21.90
2018-06-15T08:39:36.463Z,21.83
2018-06-15T08:40:36.496Z,21.86
2018-06-15T08:41:36.587Z,21.94
2018-06-15T08:42:36.553Z,21.98
2018-06-15T08:43:36.552Z,21.82
2018-06-15T08:44:36.582Z,21.98
2018-06-15T08:45:36.531Z,21.98
2018-06-15T08:46:36.535Z,21.92
2018-06-15T08:47:36.529Z,22.14
2018-06-15T08:48:36.547Z,22.22
2018-06-15T08:49:36.542Z,22.07
2018-06-15T08:50:36.556Z,22.14
2018-06-15T08:51:36.562Z,21.96
2018-06-15T08:52:36.590Z,21.98
2018-06-15T08:53:36.586Z,22.12
2018-06-15T08:54:36.592Z,22.27
2018-06-15T08:55:36.626Z,22.42
2018-06-15T08:56:36.615Z,22.28
2018-06-15T08:57:36.614Z,22.33
2018-06-15T08:58:36.614Z,22.55
2018-06-15T08:59:36.725Z,22.46
2018-06-15T09:00:36.661Z,22.31
2018-06-15T09:01:36.642Z,22.28
2018-06-15T09:02:36.678Z,22.51
2018-06-15T09:03:36.714Z,22.35
2018-06-15T09:04:36.664Z,22.55
2018-06-15T09:05:36.674Z,22.43
2018-06-15T09:06:36.781Z,22.47
2018-06-15T09:07:36.691Z,22.64
2018-06-15T09:08:36.696Z,22.58
2018-06-15T09:09:36.735Z,22.62
2018-06-15T09:10:36.717Z,22.68
2018-06-15T09:11:36.747Z,22.77
2018-06-15T09:12:36.762Z,22.68
2018-06-15T09:13:36.739Z,22.73
2018-06-15T09:14:36.751Z,22.79
2018-06-15T09:15:36.770Z,22.82
2018-06-15T09:16:36.766Z,23.00
2018-06-15T09:17:36.800Z,22.90
2018-06-15T09:18:36.813Z,23.01
2018-06-15T09:19:36.793Z,23.01
2018-06-15T09:20:36.799Z,23.01
2018-06-15T09:21:36.811Z,23.01
2018-06-15T09:22:36.850Z,23.02
2018-06-15T09:23:36.834Z,23.01
2018-06-15T09:24:36.834Z,22.97
2018-06-15T09:25:36.845Z,22.85
2018-06-15T09:26:36.870Z,22.95
2018-06-15T09:27:36.861Z,22.98
2018-06-15T09:28:36.894Z,22.98
2018-06-15T09:29:36.876Z,23.00
2018-06-15T09:30:36.884Z,22.92
2018-06-15T09:31:36.931Z,22.97
2018-06-15T09:32:36.943Z,23.10
2018-06-15T09:33:36.913Z,23.09
2018-06-15T09:34:36.921Z,23.19
2018-06-15T09:35:36.933Z,23.25
2018-06-15T09:36:36.937Z,23.19
2018-06-15T09:37:36.959Z,23.23
2018-06-15T09:38:36.964Z,23.15
2018-06-15T09:39:36.969Z,23.01
2018-06-15T09:40:37.035Z,23.02
2018-06-15T09:41:37.099Z,23.09
2018-06-15T09:42:37.080Z,23.10
2018-06-15T09:43:37.052Z,22.94
2018-06-15T09:44:37.094Z,22.79
2018-06-15T09:45:37.088Z,22.61
2018-06-15T09:46:37.116Z,22.80
2018-06-15T09:47:37.107Z,22.86
2018-06-15T09:48:37.154Z,22.90
2018-06-15T09:49:37.147Z,22.98
2018-06-15T09:50:37.076Z,22.98
2018-06-15T09:51:37.124Z,22.85
2018-06-15T09:52:37.165Z,22.70
2018-06-15T09:53:37.096Z,22.94
2018-06-15T09:54:37.107Z,23.00
2018-06-15T09:55:37.108Z,23.00
2018-06-15T09:56:37.172Z,22.83
2018-06-15T09:57:37.130Z,23.02
2018-06-15T09:58:37.251Z,23.17
2018-06-15T09:59:38.769Z,23.00
2018-06-15T10:00:37.492Z,23.10
2018-06-15T10:01:37.205Z,23.17
2018-06-15T10:02:37.275Z,23.28
2018-06-15T10:03:37.295Z,23.33
2018-06-15T10:04:37.186Z,23.22
2018-06-15T10:05:37.207Z,23.01
2018-06-15T10:06:37.221Z,23.00
2018-06-15T10:07:37.219Z,23.07
2018-06-15T10:08:37.261Z,23.15
2018-06-15T10:09:37.337Z,23.27
2018-06-15T10:10:37.260Z,23.05
2018-06-15T10:11:37.249Z,23.20
2018-06-15T10:12:37.279Z,23.22
2018-06-15T10:13:37.288Z,23.36
2018-06-15T10:14:37.273Z,23.54
2018-06-15T10:15:37.293Z,23.61
2018-06-15T10:16:37.404Z,23.47
2018-06-15T10:17:37.312Z,23.63
2018-06-15T10:18:37.462Z,23.66
2018-06-15T10:19:37.360Z,23.66
2018-06-15T10:20:37.341Z,23.80
2018-06-15T10:21:37.346Z,23.60
2018-06-15T10:22:37.380Z,23.70
2018-06-15T10:23:37.369Z,23.53
2018-06-15T10:24:37.397Z,23.80
2018-06-15T10:25:37.410Z,24.00
2018-06-15T10:26:37.384Z,23.85
2018-06-15T10:27:37.439Z,23.95
2018-06-15T10:28:37.411Z,23.83
2018-06-15T10:29:37.465Z,23.79
2018-06-15T10:30:37.430Z,23.87
2018-06-15T10:31:37.465Z,23.80
2018-06-15T10:32:37.502Z,23.66
2018-06-15T10:33:37.465Z,23.65
2018-06-15T10:34:37.491Z,23.83
2018-06-15T10:35:37.502Z,23.76
2018-06-15T10:36:37.522Z,23.68
2018-06-15T10:37:37.494Z,23.50
2018-06-15T10:38:37.515Z,23.48
2018-06-15T10:39:37.628Z,23.40
2018-06-15T10:40:37.541Z,23.83
2018-06-15T10:41:37.531Z,23.68
2018-06-15T10:42:37.544Z,23.88
2018-06-15T10:43:37.585Z,23.85
2018-06-15T10:44:37.564Z,23.87
2018-06-15T10:45:37.617Z,23.66
2018-06-15T10:46:37.575Z,23.63
2018-06-15T10:47:37.586Z,23.61
2018-06-15T10:48:38.633Z,23.28
2018-06-15T10:49:38.546Z,23.47
2018-06-15T10:50:38.464Z,23.47
2018-06-15T10:51:38.949Z,23.53
2018-06-15T10:52:39.582Z,23.32
2018-06-15T10:53:37.639Z,23.42
2018-06-15T10:54:37.654Z,23.63
2018-06-15T10:55:37.667Z,23.46
2018-06-15T10:56:37.682Z,23.69
2018-06-15T10:57:37.678Z,23.75
2018-06-15T10:58:37.725Z,23.65
2018-06-15T10:59:37.700Z,23.58
2018-06-15T11:00:37.727Z,23.66
2018-06-15T11:01:37.738Z,23.78
2018-06-15T11:02:37.732Z,23.75
2018-06-15T11:03:37.749Z,23.85
2018-06-15T11:04:37.791Z,23.88
2018-06-15T11:05:37.754Z,23.80
2018-06-15T11:06:37.774Z,23.93
2018-06-15T11:07:37.789Z,23.87
2018-06-15T11:08:37.817Z,23.79
2018-06-15T11:09:37.794Z,23.98
2018-06-15T11:10:37.803Z,24.08
2018-06-15T11:11:37.816Z,24.10
2018-06-15T11:12:37.820Z,24.13
2018-06-15T11:13:37.834Z,24.13
2018-06-15T11:14:37.839Z,23.88
2018-06-15T11:15:37.849Z,23.78
2018-06-15T11:16:37.865Z,23.94
2018-06-15T11:17:37.869Z,24.05
2018-06-15T11:18:37.877Z,24.21
2018-06-15T11:19:37.888Z,24.25
2018-06-15T11:20:37.900Z,24.34
2018-06-15T11:21:37.908Z,24.45
2018-06-15T11:22:37.918Z,24.64
2018-06-15T11:23:37.930Z,24.60
2018-06-15T11:24:37.939Z,24.62
2018-06-15T11:25:37.946Z,24.50
2018-06-15T11:26:37.962Z,24.35
2018-06-15T11:27:37.972Z,24.47
2018-06-15T11:28:37.980Z,24.46
2018-06-15T11:29:37.986Z,24.46
2018-06-15T11:30:38.030Z,24.57
2018-06-15T11:31:38.012Z,24.57
2018-06-15T11:32:38.030Z,24.64
2018-06-15T11:33:38.046Z,24.47
2018-06-15T11:34:38.037Z,24.40
2018-06-15T11:35:38.055Z,24.25
2018-06-15T11:36:38.083Z,24.20
2018-06-15T11:37:38.065Z,24.20
2018-06-15T11:38:38.078Z,24.12
2018-06-15T11:39:38.093Z,24.27
2018-06-15T11:40:38.098Z,24.24
2018-06-15T11:41:38.110Z,24.34
2018-06-15T11:42:38.116Z,24.30
2018-06-15T11:43:38.130Z,24.25
2018-06-15T11:44:38.137Z,24.10
2018-06-15T11:45:38.144Z,24.16
2018-06-15T11:46:38.155Z,24.13
2018-06-15T11:47:38.172Z,24.22
2018-06-15T11:48:38.198Z,24.12
2018-06-15T11:49:38.185Z,24.09
2018-06-15T11:50:38.197Z,24.24
2018-06-15T11:51:38.205Z,24.25
2018-06-15T11:52:38.250Z,24.22
2018-06-15T11:53:38.267Z,24.25
2018-06-15T11:54:38.264Z,24.47
2018-06-15T11:55:38.290Z,24.45
2018-06-15T11:56:38.283Z,24.50
2018-06-15T11:57:38.275Z,24.53
2018-06-15T11:58:38.280Z,24.45
2018-06-15T11:59:38.287Z,24.37
2018-06-15T12:00:38.314Z,24.50
2018-06-15T12:01:38.380Z,24.40
2018-06-15T12:02:38.319Z,24.20
2018-06-15T12:03:38.331Z,24.06
2018-06-15T12:04:38.337Z,24.24
2018-06-15T12:05:38.350Z,24.50
2018-06-15T12:06:38.353Z,24.57
2018-06-15T12:07:38.366Z,24.65
2018-06-15T12:08:38.376Z,24.62
2018-06-15T12:09:38.385Z,24.64
2018-06-15T12:10:38.404Z,24.53
2018-06-15T12:11:38.410Z,24.68
2018-06-15T12:12:38.417Z,24.67
2018-06-15T12:13:38.424Z,24.64
2018-06-15T12:14:38.443Z,24.57
2018-06-15T12:15:38.448Z,24.60
2018-06-15T12:16:38.458Z,24.47
2018-06-15T12:17:38.473Z,24.65
2018-06-15T12:18:38.478Z,24.64
2018-06-15T12:19:38.489Z,24.76
2018-06-15T12:20:38.502Z,24.53
2018-06-15T12:21:38.515Z,24.60
2018-06-15T12:22:38.541Z,24.78
2018-06-15T12:23:38.528Z,24.80
2018-06-15T12:24:38.541Z,24.91
2018-06-15T12:25:38.558Z,24.80
2018-06-15T12:26:38.561Z,24.55
2018-06-15T12:27:38.570Z,24.69
2018-06-15T12:28:38.616Z,24.90
2018-06-15T12:29:38.596Z,24.96
2018-06-15T12:30:38.600Z,24.90
2018-06-15T12:31:38.614Z,25.00
2018-06-15T12:32:38.647Z,25.15
2018-06-15T12:33:38.635Z,25.02
2018-06-15T12:34:38.645Z,25.13
2018-06-15T12:35:38.663Z,25.17
2018-06-15T12:36:38.666Z,25.10
2018-06-15T12:37:38.690Z,25.03
2018-06-15T12:38:38.691Z,25.00
2018-06-15T12:39:38.697Z,25.02
2018-06-15T12:40:38.713Z,24.99
2018-06-15T12:41:38.732Z,25.17
2018-06-15T12:42:38.731Z,25.02
2018-06-15T12:43:38.765Z,25.27
2018-06-15T12:44:38.752Z,25.25
2018-06-15T12:45:38.814Z,25.36
2018-06-15T12:46:38.768Z,25.38
2018-06-15T12:47:38.783Z,25.42
2018-06-15T12:48:38.797Z,25.40
2018-06-15T12:49:38.803Z,25.43
2018-06-15T12:50:38.812Z,25.45
2018-06-15T12:51:38.824Z,25.33
2018-06-15T12:52:38.889Z,25.52